Погода Зиранина 2 недели

Республика Дагестан, Россия

15 - 28 июля
  • 15июля
    Сегодня
    +21°
    +32°
    Ясно и безоблачно
    ВремяПогодаТемператураВлажностьДавлениеВетер, м/сВероятность осадков
    00:00Ясно и безоблачно+21°C53 %708 мм0.6 м/с2 %
    03:00Ясно и безоблачно+20°C64 %708 мм1.1 м/с2 %
    06:00Ясно и безоблачно+22°C62 %708 мм0.7 м/с2 %
    09:00Ясно и безоблачно+26°C41 %709 мм0.8 м/с2 %
    12:00Ясно и безоблачно+30°C30 %709 мм1.8 м/с2 %
    15:00Ясно и безоблачно+31°C35 %708 мм2.3 м/с2 %
    18:00Ясно и безоблачно+29°C49 %709 мм1.3 м/с2 %
    21:00Ясно и безоблачно+25°C56 %709 мм0.6 м/с2 %
  • 16июля
    Вторник
    +21°
    +33°
    Практически безоблачно
    ВремяПогодаТемператураВлажностьДавлениеВетер, м/сВероятность осадков
    00:00Ясно и безоблачно+24°C69 %709 мм0.8 м/с2 %
    03:00Ясно и безоблачно+23°C75 %708 мм1.1 м/с2 %
    06:00Ясно и безоблачно+23°C73 %709 мм0.8 м/с2 %
    09:00Ясно и безоблачно+28°C47 %709 мм0.7 м/с2 %
    12:00Ясно и безоблачно+31°C34 %709 мм2.0 м/с2 %
    15:00Практически безоблачно+32°C39 %709 мм2.4 м/с6 %
    18:00Небольшая облачность+29°C52 %709 мм1.9 м/с6 %
    21:00Практически безоблачно+24°C66 %710 мм0.7 м/с2 %
  • 17июля
    Среда
    +21°
    +33°
    Практически безоблачно
    ВремяПогодаТемператураВлажностьДавлениеВетер, м/сВероятность осадков
    00:00Ясно и безоблачно+22°C80 %709 мм1.2 м/с2 %
    03:00Ясно и безоблачно+23°C79 %709 мм0.8 м/с2 %
    06:00Ясно и безоблачно+24°C74 %710 мм0.9 м/с2 %
    09:00Ясно и безоблачно+29°C47 %710 мм0.7 м/с2 %
    12:00Ясно и безоблачно+31°C34 %710 мм2.6 м/с8 %
    15:00Практически безоблачно+33°C37 %710 мм3.3 м/с10 %
    18:00Практически безоблачно+29°C50 %710 мм1.6 м/с9 %
    21:00Небольшая облачность+24°C63 %710 мм0.4 м/с6 %
  • 18июля
    Четверг
    +22°
    +32°
    Облачно с прояснениями
    ВремяПогодаТемператураВлажностьДавлениеВетер, м/сВероятность осадков
    00:00Облачно с прояснениями+23°C75 %709 мм0.8 м/с10 %
    03:00Облачно с прояснениями+22°C81 %709 мм0.6 м/с9 %
    06:00Практически безоблачно+23°C75 %709 мм0.5 м/с7 %
    09:00Облачно с прояснениями+28°C49 %710 мм1.4 м/с16 %
    12:00Практически безоблачно+30°C43 %710 мм2.7 м/с32 %
    15:00Облачно с прояснениями+31°C43 %709 мм2.6 м/с35 %
    18:00Облачно с прояснениями+28°C52 %709 мм1.1 м/с30 %
    21:00Практически безоблачно+24°C68 %709 мм1.0 м/с6 %
  • 19июля
    Пятница
    +22°
    +33°
    Небольшая облачность
    ВремяПогодаТемператураВлажностьДавлениеВетер, м/сВероятность осадков
    00:00Ясно и безоблачно+22°C79 %709 мм0.6 м/с2 %
    03:00Ясно и безоблачно+23°C81 %708 мм1.0 м/с2 %
    06:00Ясно и безоблачно+23°C71 %708 мм0.9 м/с2 %
    09:00Ясно и безоблачно+28°C39 %708 мм0.2 м/с3 %
    12:00Практически безоблачно+31°C32 %708 мм2.4 м/с3 %
    15:00Небольшая облачность+33°C32 %707 мм2.5 м/с5 %
    18:00Ясно и безоблачно+29°C43 %707 мм1.3 м/с7 %
    21:00Практически безоблачно+26°C46 %707 мм0.3 м/с2 %
Мы используем cookies
Соглашаюсь